EGNX/EMA METAR and TAF weather

Enter ICAO airport designator
Station Type Date Time Source
EGNX METAR 2021/04/13 23:20 UTC NOAA

EGNX 132320Z 04004KT CAVOK 05/M01 Q1032


Station Type Date Time Source
EGNX Decoded METAR 2021/04/13 23:20 UTC NOAA

East Midlands, United Kingdom (EGNX) 52-50N 001-20W
Apr 13, 2021 - 07:20 PM EDT / 2021.04.13 2320 UTC
Wind: from the NE (040 degrees) at 5 MPH (4 KT):0
Visibility: greater than 7 mile(s):0
Temperature: 41 F (5 C)
Dew Point: 30 F (-1 C)
Relative Humidity: 65%
Pressure (altimeter): 30.47 in. Hg (1032 hPa)
ob: EGNX 132320Z 04004KT CAVOK 05/M01 Q1032
cycle: 23

Station Type Date Time Source
EGNX TAF 2021/04/13 18:09 UTC NOAA

TAF EGNX 131655Z 1318/1418 VRB03KT 9999 FEW040
BECMG 1409/1412 04010KT

Example: see airport list